createdAt,value
2023-04-22T00:00:28.874Z,17.60
2023-04-22T00:02:56.553Z,17.92
2023-04-22T00:05:23.679Z,17.83
2023-04-22T00:07:50.899Z,17.00
2023-04-22T00:10:17.968Z,17.65
2023-04-22T00:12:44.933Z,18.05
2023-04-22T00:15:12.309Z,17.77
2023-04-22T00:17:40.451Z,16.55
2023-04-22T00:20:08.201Z,15.38
2023-04-22T00:22:35.311Z,15.57
2023-04-22T00:25:02.272Z,16.38
2023-04-22T00:27:29.391Z,15.55
2023-04-22T00:29:56.455Z,17.25
2023-04-22T00:32:23.658Z,15.60
2023-04-22T00:34:51.355Z,17.77
2023-04-22T00:37:18.455Z,17.13
2023-04-22T00:39:45.656Z,16.15
2023-04-22T00:42:14.121Z,16.15
2023-04-22T00:44:42.479Z,16.55
2023-04-22T00:47:10.028Z,15.35
2023-04-22T00:49:37.603Z,14.13
2023-04-22T00:52:05.053Z,14.50
2023-04-22T00:54:34.504Z,15.70
2023-04-22T00:57:03.022Z,16.17
2023-04-22T00:59:30.286Z,14.02
2023-04-22T01:01:58.088Z,14.73
2023-04-22T01:04:25.860Z,14.35
2023-04-22T01:06:56.477Z,15.15
2023-04-22T01:09:23.886Z,14.23
2023-04-22T01:11:51.151Z,14.07
2023-04-22T01:14:18.308Z,13.32
2023-04-22T01:16:46.477Z,14.43
2023-04-22T01:19:13.777Z,14.55
2023-04-22T01:21:43.351Z,15.23
2023-04-22T01:24:10.897Z,14.27
2023-04-22T01:26:38.241Z,14.23
2023-04-22T01:29:06.281Z,15.65
2023-04-22T01:31:33.702Z,14.68
2023-04-22T01:34:01.470Z,13.18
2023-04-22T01:36:28.985Z,13.57
2023-04-22T01:38:56.684Z,17.02
2023-04-22T01:41:26.973Z,15.13
2023-04-22T01:43:54.726Z,14.50
2023-04-22T01:46:21.707Z,13.57
2023-04-22T01:48:51.622Z,13.05
2023-04-22T01:51:23.785Z,13.25
2023-04-22T01:53:51.213Z,12.98
2023-04-22T01:56:18.782Z,12.52
2023-04-22T01:58:46.102Z,12.23
2023-04-22T02:01:14.394Z,11.75
2023-04-22T02:03:41.855Z,11.77
2023-04-22T02:06:11.112Z,12.27
2023-04-22T02:08:38.467Z,11.80
2023-04-22T02:11:05.938Z,11.57
2023-04-22T02:13:41.291Z,10.82
2023-04-22T02:16:08.652Z,10.38
2023-04-22T02:18:35.982Z,11.20
2023-04-22T02:21:03.229Z,10.30
2023-04-22T02:23:30.519Z,11.68
2023-04-22T02:25:57.940Z,10.85
2023-04-22T02:28:24.970Z,11.25
2023-04-22T02:30:52.170Z,9.65
2023-04-22T02:33:19.192Z,10.73
2023-04-22T02:35:46.667Z,10.68
2023-04-22T02:38:18.616Z,11.27
2023-04-22T02:40:46.478Z,11.48
2023-04-22T02:43:13.439Z,11.00
2023-04-22T02:45:41.048Z,10.35
2023-04-22T02:48:08.585Z,10.93
2023-04-22T02:50:36.500Z,10.88
2023-04-22T02:53:03.672Z,9.93
2023-04-22T02:55:30.664Z,9.85
2023-04-22T02:57:57.747Z,10.50
2023-04-22T03:00:24.800Z,10.55
2023-04-22T03:02:52.172Z,11.23
2023-04-22T03:05:22.874Z,10.90
2023-04-22T03:07:50.510Z,10.90
2023-04-22T03:10:17.619Z,10.43
2023-04-22T03:12:44.931Z,9.32
2023-04-22T03:15:12.750Z,9.23
2023-04-22T03:17:39.798Z,11.13
2023-04-22T03:20:11.746Z,9.27
2023-04-22T03:22:38.937Z,9.63
2023-04-22T03:25:08.032Z,8.80
2023-04-22T03:27:35.136Z,9.23
2023-04-22T03:30:02.591Z,8.90
2023-04-22T03:32:29.705Z,9.48
2023-04-22T03:35:13.927Z,8.52
2023-04-22T03:37:41.160Z,9.98
2023-04-22T03:40:13.487Z,9.65
2023-04-22T03:42:40.908Z,9.15
2023-04-22T03:45:08.433Z,8.77
2023-04-22T03:47:40.082Z,9.63
2023-04-22T03:50:18.149Z,9.48
2023-04-22T03:52:45.665Z,9.40
2023-04-22T03:55:13.526Z,9.57
2023-04-22T03:57:41.090Z,9.10
2023-04-22T04:00:08.618Z,9.25
2023-04-22T04:02:41.698Z,9.50
2023-04-22T04:05:12.587Z,9.43
2023-04-22T04:07:41.154Z,10.20
2023-04-22T04:10:08.766Z,8.50
2023-04-22T04:12:35.921Z,9.32
2023-04-22T04:15:03.210Z,9.13
2023-04-22T04:17:30.650Z,9.40
2023-04-22T04:19:58.108Z,9.52
2023-04-22T04:22:28.049Z,9.82
2023-04-22T04:27:31.549Z,9.30
2023-04-22T04:29:58.871Z,9.38
2023-04-22T04:32:45.645Z,9.82
2023-04-22T04:35:14.883Z,9.32
2023-04-22T04:37:46.891Z,9.40
2023-04-22T04:40:14.951Z,9.40
2023-04-22T04:45:20.843Z,9.50
2023-04-22T04:47:50.825Z,10.18
2023-04-22T04:50:23.131Z,9.18
2023-04-22T04:52:52.812Z,10.65
2023-04-22T04:55:25.609Z,9.45
2023-04-22T04:57:53.221Z,10.23
2023-04-22T05:00:20.497Z,10.10
2023-04-22T05:02:48.249Z,11.15
2023-04-22T05:05:15.686Z,10.88
2023-04-22T05:07:43.867Z,11.00
2023-04-22T05:10:13.333Z,11.88
2023-04-22T05:12:46.267Z,9.80
2023-04-22T05:15:17.680Z,10.15
2023-04-22T05:17:44.800Z,10.05
2023-04-22T05:20:12.100Z,9.20
2023-04-22T05:22:43.252Z,8.80
2023-04-22T05:25:11.008Z,10.45
2023-04-22T05:27:42.818Z,9.00
2023-04-22T05:30:11.562Z,9.05
2023-04-22T05:32:39.114Z,7.50
2023-04-22T05:35:07.022Z,7.60
2023-04-22T05:37:34.320Z,8.18
2023-04-22T05:40:01.490Z,7.82
2023-04-22T05:42:28.745Z,6.85
2023-04-22T05:44:55.829Z,7.05
2023-04-22T05:47:23.021Z,8.77
2023-04-22T05:49:50.550Z,8.23
2023-04-22T05:52:24.127Z,6.63
2023-04-22T05:55:03.958Z,5.55
2023-04-22T05:57:31.977Z,5.10
2023-04-22T06:00:01.201Z,5.03
2023-04-22T06:02:28.542Z,5.10
2023-04-22T06:04:57.420Z,5.13
2023-04-22T06:07:24.968Z,4.75
2023-04-22T06:09:59.356Z,4.43
2023-04-22T06:12:31.362Z,4.45
2023-04-22T06:14:58.385Z,3.58
2023-04-22T06:17:25.469Z,4.47
2023-04-22T06:19:53.522Z,3.60
2023-04-22T06:22:21.945Z,3.63
2023-04-22T06:24:49.044Z,3.60
2023-04-22T06:27:16.380Z,3.58
2023-04-22T06:29:43.488Z,3.88
2023-04-22T06:32:11.756Z,2.97
2023-04-22T06:34:39.255Z,3.08
2023-04-22T06:37:06.740Z,3.53
2023-04-22T06:39:33.974Z,3.25
2023-04-22T06:42:22.617Z,3.30
2023-04-22T06:45:12.788Z,3.13
2023-04-22T06:47:55.967Z,3.35
2023-04-22T06:50:29.277Z,2.75
2023-04-22T06:52:58.644Z,3.28
2023-04-22T06:55:25.802Z,2.70
2023-04-22T06:57:53.022Z,3.15
2023-04-22T07:00:20.373Z,2.83
2023-04-22T07:02:47.511Z,2.50
2023-04-22T07:05:15.866Z,3.13
2023-04-22T07:07:43.904Z,2.00
2023-04-22T07:10:17.293Z,3.28
2023-04-22T07:13:03.146Z,3.25
2023-04-22T07:15:30.298Z,3.22
2023-04-22T07:17:57.410Z,2.83
2023-04-22T07:20:24.557Z,3.03
2023-04-22T07:22:52.534Z,3.80
2023-04-22T07:25:19.562Z,2.67
2023-04-22T07:27:46.700Z,3.45
2023-04-22T07:30:14.045Z,2.85
2023-04-22T07:32:41.247Z,3.30
2023-04-22T07:35:08.850Z,3.58
2023-04-22T07:37:36.006Z,3.47
2023-04-22T07:40:03.160Z,3.05
2023-04-22T07:42:30.307Z,3.42
2023-04-22T07:44:57.341Z,3.28
2023-04-22T07:47:24.418Z,3.17
2023-04-22T07:49:51.461Z,3.30
2023-04-22T07:52:19.822Z,2.78
2023-04-22T07:54:46.912Z,3.55
2023-04-22T07:57:13.874Z,2.78
2023-04-22T07:59:41.188Z,3.00
2023-04-22T08:02:08.505Z,3.58
2023-04-22T08:04:35.848Z,3.00
2023-04-22T08:07:17.069Z,2.88
2023-04-22T08:09:51.051Z,3.35
2023-04-22T08:12:18.423Z,3.42
2023-04-22T08:14:45.529Z,3.28
2023-04-22T08:17:12.685Z,3.38
2023-04-22T08:19:40.073Z,3.13
2023-04-22T08:22:07.448Z,3.65
2023-04-22T08:24:34.544Z,2.60
2023-04-22T08:27:02.538Z,2.50
2023-04-22T08:29:29.603Z,3.33
2023-04-22T08:31:56.569Z,3.03
2023-04-22T08:34:24.969Z,3.50
2023-04-22T08:36:52.277Z,2.80
2023-04-22T08:39:19.685Z,3.60
2023-04-22T08:41:47.530Z,3.08
2023-04-22T08:44:15.454Z,2.78
2023-04-22T08:46:49.146Z,3.17
2023-04-22T08:49:16.423Z,3.40
2023-04-22T08:51:44.624Z,3.40
2023-04-22T08:54:12.233Z,3.60
2023-04-22T08:56:45.355Z,3.10
2023-04-22T08:59:13.339Z,2.97
2023-04-22T09:01:42.123Z,2.67
2023-04-22T09:04:15.282Z,2.67
2023-04-22T09:06:42.438Z,3.88
2023-04-22T09:09:09.542Z,3.13
2023-04-22T09:11:37.375Z,3.10
2023-04-22T09:14:07.810Z,2.60
2023-04-22T09:16:43.075Z,3.30
2023-04-22T09:19:14.056Z,2.65
2023-04-22T09:21:45.168Z,2.72
2023-04-22T09:26:42.008Z,3.20
2023-04-22T09:29:14.534Z,3.08
2023-04-22T09:31:41.584Z,3.15
2023-04-22T09:34:09.119Z,3.35
2023-04-22T09:36:38.867Z,2.95
2023-04-22T09:39:08.309Z,2.58
2023-04-22T09:41:40.229Z,3.00
2023-04-22T09:44:14.885Z,3.10
2023-04-22T09:46:43.802Z,2.72
2023-04-22T09:49:11.652Z,2.90
2023-04-22T09:51:42.494Z,2.88
2023-04-22T09:54:11.808Z,2.78
2023-04-22T09:56:52.738Z,3.03
2023-04-22T09:59:32.165Z,3.25
2023-04-22T10:02:03.540Z,3.75
2023-04-22T10:04:31.528Z,3.77
2023-04-22T10:06:59.865Z,3.40
2023-04-22T10:09:26.871Z,3.15
2023-04-22T10:11:58.155Z,3.53
2023-04-22T10:14:26.086Z,3.20
2023-04-22T10:16:58.145Z,3.08
2023-04-22T10:19:27.100Z,3.00
2023-04-22T10:21:57.217Z,3.55
2023-04-22T10:24:27.611Z,3.55
2023-04-22T10:26:57.269Z,2.88
2023-04-22T10:29:26.175Z,2.58
2023-04-22T10:32:03.723Z,3.05
2023-04-22T10:34:34.189Z,3.20
2023-04-22T10:37:06.342Z,2.75
2023-04-22T10:39:33.600Z,2.72
2023-04-22T10:42:03.631Z,3.65
2023-04-22T10:44:45.273Z,3.05
2023-04-22T10:47:12.633Z,2.73
2023-04-22T10:49:39.967Z,3.13
2023-04-22T10:52:08.799Z,3.03
2023-04-22T10:54:38.638Z,2.83
2023-04-22T10:57:20.106Z,3.10
2023-04-22T10:59:50.539Z,2.90
2023-04-22T11:02:19.225Z,3.00
2023-04-22T11:04:47.227Z,2.60
2023-04-22T11:07:23.067Z,2.63
2023-04-22T11:09:51.890Z,2.95
2023-04-22T11:12:40.169Z,2.50
2023-04-22T11:15:15.847Z,2.30
2023-04-22T11:17:45.588Z,3.28
2023-04-22T11:20:14.341Z,7.03
2023-04-22T11:22:44.191Z,3.17
2023-04-22T11:25:11.514Z,3.38
2023-04-22T11:27:43.796Z,2.97
2023-04-22T11:32:47.533Z,3.35
2023-04-22T11:35:18.183Z,5.13
2023-04-22T11:37:47.815Z,3.38
2023-04-22T11:40:31.634Z,3.60
2023-04-22T11:43:02.240Z,2.67
2023-04-22T11:45:31.204Z,3.63
2023-04-22T11:47:58.814Z,2.92
2023-04-22T11:50:28.497Z,2.60
2023-04-22T11:52:56.490Z,3.42
2023-04-22T11:55:26.045Z,2.40
2023-04-22T11:57:59.927Z,2.30
2023-04-22T12:00:35.091Z,2.17
2023-04-22T12:03:04.555Z,1.63
2023-04-22T12:05:52.819Z,2.28
2023-04-22T12:08:24.913Z,2.30
2023-04-22T12:10:57.839Z,2.10
2023-04-22T12:13:37.545Z,2.35
2023-04-22T12:16:18.138Z,2.17
2023-04-22T12:18:48.341Z,2.45
2023-04-22T12:21:17.460Z,2.47
2023-04-22T12:23:51.794Z,2.42
2023-04-22T12:26:20.584Z,2.08
2023-04-22T12:28:48.417Z,2.63
2023-04-22T12:31:16.364Z,2.50
2023-04-22T12:33:44.577Z,2.60
2023-04-22T12:36:11.978Z,2.00
2023-04-22T12:38:39.801Z,2.10
2023-04-22T12:41:08.139Z,1.70
2023-04-22T12:43:39.394Z,2.58
2023-04-22T12:46:08.042Z,3.10
2023-04-22T12:48:38.887Z,2.63
2023-04-22T12:51:07.000Z,2.20
2023-04-22T12:53:34.531Z,2.80
2023-04-22T12:56:01.726Z,2.97
2023-04-22T12:58:28.942Z,5.38
2023-04-22T13:00:56.085Z,3.17
2023-04-22T13:03:23.270Z,2.50
2023-04-22T13:05:50.990Z,2.63
2023-04-22T13:08:18.456Z,2.90
2023-04-22T13:10:45.588Z,2.97
2023-04-22T13:15:42.482Z,2.45
2023-04-22T13:18:09.527Z,3.35
2023-04-22T13:20:36.898Z,2.42
2023-04-22T13:23:04.888Z,2.70
2023-04-22T13:25:32.162Z,2.58
2023-04-22T13:27:59.248Z,2.53
2023-04-22T13:30:26.400Z,3.10
2023-04-22T13:32:53.627Z,2.97
2023-04-22T13:35:20.902Z,3.17
2023-04-22T13:37:47.981Z,2.78
2023-04-22T13:40:15.150Z,3.42
2023-04-22T13:42:42.934Z,2.97
2023-04-22T13:45:10.298Z,2.70
2023-04-22T13:47:37.285Z,2.42
2023-04-22T13:50:08.658Z,3.35
2023-04-22T13:52:35.881Z,2.67
2023-04-22T13:55:06.947Z,2.72
2023-04-22T13:57:34.089Z,3.38
2023-04-22T14:00:01.270Z,2.67
2023-04-22T14:02:28.257Z,2.97
2023-04-22T14:04:55.379Z,3.75
2023-04-22T14:07:22.450Z,2.80
2023-04-22T14:09:49.464Z,2.40
2023-04-22T14:12:16.751Z,2.50
2023-04-22T14:14:43.826Z,2.58
2023-04-22T14:17:11.357Z,2.60
2023-04-22T14:19:39.688Z,2.45
2023-04-22T14:22:06.923Z,2.72
2023-04-22T14:24:34.113Z,2.50
2023-04-22T14:27:04.515Z,2.67
2023-04-22T14:29:32.050Z,2.65
2023-04-22T14:31:59.529Z,2.40
2023-04-22T14:34:27.366Z,2.42
2023-04-22T14:36:54.530Z,2.92
2023-04-22T14:39:21.683Z,2.63
2023-04-22T14:41:49.102Z,2.40
2023-04-22T14:44:16.204Z,2.83
2023-04-22T14:46:43.197Z,2.63
2023-04-22T14:49:10.183Z,2.88
2023-04-22T14:51:37.336Z,2.85
2023-04-22T14:54:04.850Z,3.08
2023-04-22T14:56:32.325Z,2.80
2023-04-22T14:58:59.300Z,3.03
2023-04-22T15:01:26.422Z,2.30
2023-04-22T15:03:53.598Z,2.63
2023-04-22T15:06:20.794Z,3.05
2023-04-22T15:08:47.744Z,3.83
2023-04-22T15:11:14.834Z,3.30
2023-04-22T15:13:41.782Z,2.60
2023-04-22T15:16:08.863Z,2.90
2023-04-22T15:18:36.241Z,2.75
2023-04-22T15:21:05.828Z,2.53
2023-04-22T15:23:33.152Z,2.95
2023-04-22T15:26:00.340Z,2.90
2023-04-22T15:28:27.378Z,2.78
2023-04-22T15:30:54.427Z,3.05
2023-04-22T15:33:21.532Z,3.05
2023-04-22T15:35:50.376Z,3.38
2023-04-22T15:38:17.753Z,2.80
2023-04-22T15:40:44.858Z,2.90
2023-04-22T15:43:12.068Z,2.45
2023-04-22T15:45:39.178Z,2.75
2023-04-22T15:48:06.296Z,2.45
2023-04-22T15:50:33.467Z,2.60
2023-04-22T15:53:00.528Z,2.63
2023-04-22T15:55:27.663Z,2.42
2023-04-22T15:57:54.868Z,2.30
2023-04-22T16:00:21.896Z,2.17
2023-04-22T16:02:55.535Z,2.25
2023-04-22T16:05:24.785Z,2.25
2023-04-22T16:07:53.143Z,2.40
2023-04-22T16:10:20.392Z,2.67
2023-04-22T16:12:47.486Z,2.80
2023-04-22T16:15:14.629Z,3.08
2023-04-22T16:17:43.180Z,2.65
2023-04-22T16:20:10.647Z,2.88
2023-04-22T16:22:37.671Z,2.60
2023-04-22T16:25:05.158Z,2.40
2023-04-22T16:27:32.573Z,2.67
2023-04-22T16:29:59.905Z,2.35
2023-04-22T16:32:28.550Z,2.70
2023-04-22T16:34:56.119Z,2.90
2023-04-22T16:37:23.254Z,2.33
2023-04-22T16:39:50.676Z,2.47
2023-04-22T16:42:17.758Z,2.25
2023-04-22T16:44:45.019Z,2.58
2023-04-22T16:47:12.278Z,2.53
2023-04-22T16:49:39.701Z,2.60
2023-04-22T16:52:06.929Z,2.65
2023-04-22T16:54:34.137Z,3.08
2023-04-22T16:57:02.849Z,2.60
2023-04-22T16:59:30.020Z,2.75
2023-04-22T17:01:57.384Z,2.50
2023-04-22T17:04:24.661Z,2.72
2023-04-22T17:06:51.829Z,2.35
2023-04-22T17:09:19.125Z,2.80
2023-04-22T17:11:46.160Z,2.78
2023-04-22T17:14:13.748Z,2.10
2023-04-22T17:16:40.906Z,3.15
2023-04-22T17:19:07.996Z,3.70
2023-04-22T17:21:35.145Z,19.05
2023-04-22T17:24:03.905Z,38.17
2023-04-22T17:26:30.964Z,49.90
2023-04-22T17:28:57.978Z,40.60
2023-04-22T17:31:25.257Z,43.42
2023-04-22T17:33:52.280Z,30.42
2023-04-22T17:36:20.161Z,25.50
2023-04-22T17:38:47.179Z,27.65
2023-04-22T17:41:14.356Z,32.75
2023-04-22T17:43:41.630Z,28.20
2023-04-22T17:46:09.174Z,12.32
2023-04-22T17:48:36.856Z,12.23
2023-04-22T17:51:07.187Z,8.50
2023-04-22T17:53:34.554Z,8.13
2023-04-22T17:56:01.580Z,7.03
2023-04-22T17:58:28.789Z,5.78
2023-04-22T18:00:58.607Z,4.75
2023-04-22T18:03:26.432Z,4.32
2023-04-22T18:05:53.603Z,4.93
2023-04-22T18:08:20.667Z,4.25
2023-04-22T18:10:48.006Z,3.90
2023-04-22T18:13:15.508Z,5.95
2023-04-22T18:15:42.590Z,4.45
2023-04-22T18:18:09.686Z,4.95
2023-04-22T18:20:36.889Z,4.88
2023-04-22T18:23:04.159Z,4.65
2023-04-22T18:25:31.354Z,5.88
2023-04-22T18:27:58.486Z,5.07
2023-04-22T18:30:25.607Z,4.30
2023-04-22T18:32:53.249Z,4.45
2023-04-22T18:35:20.855Z,4.88
2023-04-22T18:37:48.052Z,4.30
2023-04-22T18:40:15.190Z,4.78
2023-04-22T18:42:45.090Z,3.90
2023-04-22T18:45:15.642Z,4.23
2023-04-22T18:47:44.146Z,3.90
2023-04-22T18:50:11.534Z,3.83
2023-04-22T18:52:38.726Z,3.83
2023-04-22T18:55:06.568Z,4.25
2023-04-22T18:57:33.859Z,3.60
2023-04-22T19:00:01.050Z,4.47
2023-04-22T19:02:28.910Z,4.13
2023-04-22T19:04:56.846Z,5.32
2023-04-22T19:07:25.384Z,5.00
2023-04-22T19:09:52.880Z,5.30
2023-04-22T19:12:20.040Z,4.97
2023-04-22T19:14:48.361Z,5.40
2023-04-22T19:17:15.733Z,5.95
2023-04-22T19:19:43.925Z,6.35
2023-04-22T19:22:12.972Z,5.25
2023-04-22T19:24:40.213Z,5.47
2023-04-22T19:27:13.936Z,5.10
2023-04-22T19:29:51.400Z,5.28
2023-04-22T19:32:19.256Z,5.57
2023-04-22T19:34:48.147Z,5.47
2023-04-22T19:37:15.492Z,6.40
2023-04-22T19:39:43.619Z,5.28
2023-04-22T19:42:11.672Z,6.35
2023-04-22T19:44:41.279Z,5.85
2023-04-22T19:47:08.894Z,6.70
2023-04-22T19:49:36.721Z,7.13
2023-04-22T19:52:04.605Z,6.35
2023-04-22T19:54:32.988Z,7.90
2023-04-22T19:57:02.662Z,8.20
2023-04-22T19:59:32.049Z,8.40
2023-04-22T20:02:00.142Z,9.15
2023-04-22T20:04:28.558Z,8.57
2023-04-22T20:06:57.338Z,8.27
2023-04-22T20:09:27.021Z,8.25
2023-04-22T20:11:54.260Z,7.57
2023-04-22T20:14:23.085Z,6.63
2023-04-22T20:16:50.727Z,7.50
2023-04-22T20:19:18.441Z,8.07
2023-04-22T20:21:48.314Z,8.38
2023-04-22T20:24:19.991Z,8.13
2023-04-22T20:26:50.385Z,8.80
2023-04-22T20:29:22.337Z,8.50
2023-04-22T20:31:49.907Z,9.57
2023-04-22T20:34:17.398Z,10.40
2023-04-22T20:36:45.011Z,10.35
2023-04-22T20:39:14.507Z,10.35
2023-04-22T20:41:42.023Z,9.95
2023-04-22T20:44:09.406Z,9.82
2023-04-22T20:46:37.922Z,9.13
2023-04-22T20:49:05.158Z,9.45
2023-04-22T20:51:32.207Z,8.57
2023-04-22T20:53:59.363Z,9.63
2023-04-22T20:56:27.460Z,9.23
2023-04-22T20:58:54.460Z,8.43
2023-04-22T21:01:21.514Z,9.90
2023-04-22T21:03:52.657Z,9.85
2023-04-22T21:06:21.276Z,9.20
2023-04-22T21:08:49.875Z,9.57
2023-04-22T21:11:17.788Z,8.52
2023-04-22T21:13:45.216Z,9.52
2023-04-22T21:16:16.444Z,9.48
2023-04-22T21:18:44.853Z,8.43
2023-04-22T21:21:15.705Z,7.63
2023-04-22T21:23:43.152Z,8.27
2023-04-22T21:26:10.887Z,6.85
2023-04-22T21:28:39.217Z,7.13
2023-04-22T21:31:06.862Z,5.95
2023-04-22T21:33:34.081Z,6.28
2023-04-22T21:36:01.234Z,6.35
2023-04-22T21:38:29.203Z,5.65
2023-04-22T21:40:56.270Z,6.38
2023-04-22T21:43:23.510Z,5.30
2023-04-22T21:45:51.808Z,5.55
2023-04-22T21:48:19.064Z,5.38
2023-04-22T21:50:46.108Z,5.68
2023-04-22T21:53:13.206Z,4.90
2023-04-22T21:55:40.717Z,6.45
2023-04-22T21:58:08.302Z,6.05
2023-04-22T22:00:35.318Z,6.68
2023-04-22T22:03:02.688Z,5.75
2023-04-22T22:05:30.416Z,5.50
2023-04-22T22:07:57.661Z,6.05
2023-04-22T22:10:25.133Z,6.20
2023-04-22T22:12:52.134Z,5.80
2023-04-22T22:15:19.498Z,6.93
2023-04-22T22:17:46.889Z,6.63
2023-04-22T22:20:20.670Z,7.05
2023-04-22T22:22:48.199Z,7.40
2023-04-22T22:25:16.620Z,7.35
2023-04-22T22:27:49.587Z,7.75
2023-04-22T22:30:18.808Z,6.93
2023-04-22T22:32:46.518Z,8.70
2023-04-22T22:35:13.927Z,7.93
2023-04-22T22:37:41.449Z,8.32
2023-04-22T22:40:09.137Z,8.20
2023-04-22T22:42:36.303Z,7.60
2023-04-22T22:45:05.212Z,8.10
2023-04-22T22:47:32.875Z,8.18
2023-04-22T22:50:00.536Z,8.57
2023-04-22T22:52:27.702Z,8.02
2023-04-22T22:54:54.813Z,9.68
2023-04-22T22:57:21.908Z,8.57
2023-04-22T22:59:48.947Z,8.60
2023-04-22T23:02:16.099Z,9.02
2023-04-22T23:04:43.494Z,8.20
2023-04-22T23:07:10.846Z,9.05
2023-04-22T23:09:37.934Z,9.23
2023-04-22T23:12:05.631Z,9.80
2023-04-22T23:14:33.461Z,8.93
2023-04-22T23:17:00.665Z,9.77
2023-04-22T23:19:28.617Z,9.50
2023-04-22T23:21:56.559Z,8.57
2023-04-22T23:24:23.702Z,9.88
2023-04-22T23:26:51.085Z,9.63
2023-04-22T23:29:19.582Z,10.77
2023-04-22T23:31:49.027Z,13.82
2023-04-22T23:34:19.256Z,11.95
2023-04-22T23:36:46.930Z,12.55
2023-04-22T23:39:14.037Z,11.90
2023-04-22T23:41:40.966Z,12.88
2023-04-22T23:44:08.071Z,13.98
2023-04-22T23:46:35.830Z,13.88
2023-04-22T23:49:03.211Z,14.23
2023-04-22T23:51:30.315Z,15.02
2023-04-22T23:53:57.318Z,13.45
2023-04-22T23:56:24.634Z,15.25
2023-04-22T23:58:52.272Z,14.25
